Time;durP1;ratioP1;P1;durP2;ratioP2;P2;SDS_P1;SDS_P2;PMS_P1;PMS_P2;Temp;Humidity;BMP_temperature;BMP_pressure;BME280_temperature;BME280_humidity;BME280_pressure;Samples;Min_cycle;Max_cycle;Signal;HPM_P1;HPM_P2
2023/06/20 00:01:19;;;;;;;11.35;7.50;;;24.60;64.40;;;;;;5135943;28;20035;-75
2023/06/20 00:03:45;;;;;;;12.05;7.80;;;24.60;64.20;;;;;;5117884;28;20065;-75
2023/06/20 00:06:11;;;;;;;11.98;7.72;;;24.50;63.80;;;;;;5117891;28;20030;-75
2023/06/20 00:08:36;;;;;;;10.93;7.22;;;24.40;64.20;;;;;;5117810;28;20462;-74
2023/06/20 00:11:02;;;;;;;11.80;7.95;;;24.50;64.30;;;;;;5100920;28;20047;-75
2023/06/20 00:13:28;;;;;;;11.65;6.93;;;24.40;64.20;;;;;;5100755;28;20106;-74
2023/06/20 00:15:57;;;;;;;11.15;7.20;;;24.40;64.10;;;;;;5135701;28;20020;-75
2023/06/20 00:18:23;;;;;;;10.73;7.63;;;24.40;64.00;;;;;;5135644;28;20045;-74
2023/06/20 00:20:49;;;;;;;11.20;7.05;;;24.40;64.90;;;;;;5135530;28;20068;-75
2023/06/20 00:23:16;;;;;;;10.77;6.78;;;24.40;63.90;;;;;;5117509;28;20106;-75
2023/06/20 00:25:41;;;;;;;9.73;6.63;;;24.40;63.60;;;;;;5100820;28;20020;-75
2023/06/20 00:28:08;;;;;;;11.05;7.00;;;24.40;63.60;;;;;;5117445;28;20028;-74
2023/06/20 00:30:34;;;;;;;10.48;6.88;;;24.30;63.10;;;;;;5084078;28;20015;-75
2023/06/20 00:32:59;;;;;;;8.90;6.90;;;24.30;63.10;;;;;;5117427;28;20032;-75
2023/06/20 00:35:25;;;;;;;9.65;6.90;;;24.30;63.30;;;;;;5117201;28;20024;-75
2023/06/20 00:37:51;;;;;;;11.23;7.38;;;24.30;63.30;;;;;;5100437;28;20035;-75
2023/06/20 00:40:17;;;;;;;10.18;7.20;;;24.30;62.90;;;;;;5117196;28;20028;-75
2023/06/20 00:42:43;;;;;;;10.93;6.53;;;24.20;63.10;;;;;;5117219;28;20031;-74
2023/06/20 00:45:38;;;;;;;9.57;7.20;;;24.20;63.10;;;;;;5117190;28;20020;-75
2023/06/20 00:48:06;;;;;;;10.73;6.25;;;24.20;63.20;;;;;;5113054;28;20071;-75
2023/06/20 00:50:33;;;;;;;10.05;7.00;;;24.20;63.30;;;;;;5116964;28;20024;-74
2023/06/20 00:53:00;;;;;;;9.40;6.57;;;24.20;63.30;;;;;;5116850;28;20028;-75
2023/06/20 00:55:28;;;;;;;9.50;6.68;;;24.10;63.10;;;;;;5134905;28;20510;-74
2023/06/20 00:57:58;;;;;;;10.30;6.32;;;24.10;63.00;;;;;;5134504;28;20032;-74
2023/06/20 01:00:25;;;;;;;10.52;6.47;;;24.10;63.20;;;;;;5116854;28;20027;-75
2023/06/20 01:02:53;;;;;;;10.75;6.85;;;24.10;63.20;;;;;;5134668;28;20026;-74
2023/06/20 01:05:26;;;;;;;9.80;5.95;;;24.10;63.50;;;;;;5134769;28;20019;-74
2023/06/20 01:08:13;;;;;;;11.20;6.68;;;24.10;63.20;;;;;;5116753;28;20035;-74
2023/06/20 01:11:02;;;;;;;10.75;7.07;;;24.10;62.80;;;;;;5116665;28;20047;-74
2023/06/20 01:13:45;;;;;;;9.82;6.68;;;24.00;62.50;;;;;;5116591;28;20035;-74
2023/06/20 01:16:25;;;;;;;9.50;6.25;;;24.00;63.60;;;;;;5116528;28;20035;-74
2023/06/20 01:18:59;;;;;;;11.88;6.20;;;24.00;62.90;;;;;;5134567;28;20046;-74
2023/06/20 01:21:35;;;;;;;10.68;6.82;;;24.00;63.00;;;;;;5116401;28;20051;-74
2023/06/20 01:24:15;;;;;;;9.95;6.38;;;24.00;62.80;;;;;;5116498;28;20031;-74
2023/06/20 01:26:45;;;;;;;10.80;6.57;;;24.00;62.30;;;;;;5116398;28;20043;-74
2023/06/20 01:29:15;;;;;;;9.15;6.70;;;23.90;62.40;;;;;;5134419;28;20023;-75
2023/06/20 01:31:49;;;;;;;9.65;6.78;;;23.90;62.40;;;;;;5116319;28;20061;-75
2023/06/20 01:34:22;;;;;;;9.50;6.93;;;23.90;62.50;;;;;;5134253;28;20024;-75
2023/06/20 01:36:54;;;;;;;8.52;6.45;;;23.90;62.50;;;;;;5134275;28;20045;-74
2023/06/20 01:39:43;;;;;;;8.95;6.70;;;23.90;62.70;;;;;;5116248;28;20026;-75
2023/06/20 01:42:10;;;;;;;11.75;6.65;;;23.90;62.70;;;;;;5116105;28;20031;-74
2023/06/20 01:44:38;;;;;;;9.10;6.57;;;23.80;62.60;;;;;;5099448;28;20031;-74
2023/06/20 01:47:06;;;;;;;9.52;7.15;;;23.80;62.60;;;;;;5116440;28;20020;-74
2023/06/20 01:49:33;;;;;;;10.10;6.32;;;23.70;62.60;;;;;;5133967;28;20047;-74
2023/06/20 01:52:00;;;;;;;9.77;6.40;;;23.70;62.90;;;;;;5116137;28;20062;-74
2023/06/20 01:54:29;;;;;;;10.50;6.55;;;23.80;63.10;;;;;;5116108;28;20030;-74
2023/06/20 01:56:57;;;;;;;8.57;6.10;;;23.80;63.10;;;;;;5115955;28;20045;-74
2023/06/20 01:59:24;;;;;;;9.80;6.45;;;23.70;63.10;;;;;;5133998;28;20035;-74
2023/06/20 02:01:51;;;;;;;9.50;6.45;;;23.70;62.90;;;;;;5098942;28;20564;-75
2023/06/20 02:04:18;;;;;;;10.32;6.18;;;23.70;63.00;;;;;;5133946;28;20015;-74
2023/06/20 02:06:45;;;;;;;8.95;6.38;;;23.70;63.00;;;;;;5115936;28;20083;-75
2023/06/20 02:09:13;;;;;;;8.98;6.60;;;23.70;62.80;;;;;;5116681;28;20106;-74
2023/06/20 02:11:39;;;;;;;10.18;7.00;;;23.70;63.10;;;;;;5138175;28;20027;-74
2023/06/20 02:14:06;;;;;;;12.25;6.95;;;23.70;63.20;;;;;;5120039;28;20062;-75
2023/06/20 02:16:34;;;;;;;10.52;6.38;;;23.70;63.20;;;;;;5120336;28;20034;-74
2023/06/20 02:19:00;;;;;;;10.10;6.65;;;23.80;63.20;;;;;;5119914;28;20539;-75
2023/06/20 02:21:32;;;;;;;10.38;6.72;;;23.70;63.20;;;;;;5102912;28;20028;-74
2023/06/20 02:23:59;;;;;;;11.35;6.50;;;23.70;63.30;;;;;;5137975;28;20040;-74
2023/06/20 02:26:39;;;;;;;9.15;6.35;;;23.60;63.50;;;;;;5119770;28;20020;-74
2023/06/20 02:29:07;;;;;;;11.13;6.47;;;23.60;63.10;;;;;;5137771;28;20026;-74
2023/06/20 02:31:38;;;;;;;11.95;7.22;;;23.60;63.40;;;;;;5119761;28;20031;-74
2023/06/20 02:34:07;;;;;;;10.55;6.68;;;23.60;63.50;;;;;;5137584;28;20020;-74
2023/06/20 02:36:34;;;;;;;10.18;6.45;;;23.60;63.70;;;;;;5137695;28;20030;-74
2023/06/20 02:39:01;;;;;;;9.55;6.70;;;23.60;63.90;;;;;;5137579;28;20075;-74
2023/06/20 02:41:26;;;;;;;10.68;6.82;;;23.60;63.90;;;;;;5137408;28;20054;-74
2023/06/20 02:43:52;;;;;;;10.98;6.32;;;23.60;63.80;;;;;;5119564;28;20028;-74
2023/06/20 02:46:54;;;;;;;10.25;6.78;;;23.60;63.80;;;;;;5137552;28;20028;-73
2023/06/20 02:49:39;;;;;;;10.57;6.85;;;23.60;64.10;;;;;;5137339;28;20043;-74
2023/06/20 02:52:05;;;;;;;8.50;5.90;;;23.60;64.30;;;;;;5119342;28;20028;-74
2023/06/20 02:55:04;;;;;;;11.88;6.93;;;23.60;64.60;;;;;;5119185;28;20078;-74
2023/06/20 02:57:31;;;;;;;8.07;6.13;;;23.60;64.70;;;;;;5119261;28;20030;-74
2023/06/20 03:00:09;;;;;;;10.88;7.07;;;23.50;64.70;;;;;;5137228;28;20053;-74
2023/06/20 03:02:40;;;;;;;12.68;7.07;;;23.50;65.10;;;;;;5119022;28;20020;-74
2023/06/20 03:05:10;;;;;;;9.30;6.53;;;23.50;65.20;;;;;;5137184;28;20020;-73
2023/06/20 03:07:37;;;;;;;9.30;6.75;;;23.40;65.20;;;;;;5137091;28;20016;-74
2023/06/20 03:10:06;;;;;;;9.50;6.65;;;23.40;65.50;;;;;;5119097;28;20024;-74
2023/06/20 03:12:31;;;;;;;9.65;6.90;;;23.40;65.80;;;;;;5102330;28;20032;-74
2023/06/20 03:14:57;;;;;;;10.50;7.57;;;23.50;65.60;;;;;;5101995;28;20055;-74
2023/06/20 03:17:23;;;;;;;9.98;7.05;;;23.40;65.30;;;;;;5136873;28;20032;-73
2023/06/20 03:19:49;;;;;;;9.23;6.88;;;23.40;65.80;;;;;;5101635;28;20016;-74
2023/06/20 03:22:14;;;;;;;10.50;7.55;;;23.40;65.70;;;;;;5118737;28;20048;-74
2023/06/20 03:24:40;;;;;;;12.18;7.75;;;23.30;65.90;;;;;;5118678;28;20058;-74
2023/06/20 03:27:06;;;;;;;10.40;7.30;;;23.20;65.70;;;;;;5118559;28;20095;-74
2023/06/20 03:29:32;;;;;;;11.30;7.30;;;23.20;66.40;;;;;;5118510;28;20028;-74
2023/06/20 03:31:58;;;;;;;10.40;7.30;;;23.20;66.80;;;;;;5136592;28;20023;-73
2023/06/20 03:34:24;;;;;;;12.38;8.10;;;23.20;67.00;;;;;;5136442;28;20088;-74
2023/06/20 03:36:50;;;;;;;10.88;7.82;;;23.20;67.30;;;;;;5136533;28;20027;-74
2023/06/20 03:39:16;;;;;;;12.70;8.38;;;23.30;67.40;;;;;;5118311;28;20028;-74
2023/06/20 03:41:41;;;;;;;12.13;8.00;;;23.30;66.70;;;;;;5136380;28;20414;-74
2023/06/20 03:44:07;;;;;;;13.68;8.68;;;23.20;67.60;;;;;;5136286;28;20028;-74
2023/06/20 03:46:32;;;;;;;12.50;8.10;;;23.10;67.50;;;;;;5136312;28;20024;-74
2023/06/20 03:48:58;;;;;;;12.13;8.65;;;23.10;67.70;;;;;;5101029;28;20115;-74
2023/06/20 03:51:23;;;;;;;11.90;8.68;;;23.10;67.80;;;;;;5118304;28;20020;-74
2023/06/20 03:53:49;;;;;;;14.18;8.88;;;23.10;67.40;;;;;;5136181;28;20039;-74
2023/06/20 03:56:15;;;;;;;12.75;8.82;;;23.10;67.20;;;;;;5136224;28;20075;-73
2023/06/20 03:58:40;;;;;;;13.48;8.25;;;23.00;66.70;;;;;;5118157;28;20590;-74
2023/06/20 04:01:06;;;;;;;12.00;9.20;;;23.00;67.10;;;;;;5101019;28;20028;-74
2023/06/20 04:03:32;;;;;;;14.50;8.95;;;22.90;66.80;;;;;;5100998;28;20024;-73
2023/06/20 04:06:01;;;;;;;14.48;9.50;;;22.90;66.80;;;;;;5118056;28;20079;-74
2023/06/20 04:08:28;;;;;;;13.32;9.30;;;22.90;67.10;;;;;;5117872;28;20016;-74
2023/06/20 04:10:56;;;;;;;15.48;10.77;;;22.90;67.10;;;;;;5135866;28;20024;-75
2023/06/20 04:13:22;;;;;;;16.95;10.10;;;22.90;67.60;;;;;;5135818;28;20042;-72
2023/06/20 04:15:47;;;;;;;13.48;9.07;;;22.90;67.80;;;;;;5117713;28;20028;-72
2023/06/20 04:18:13;;;;;;;13.38;9.40;;;22.90;67.80;;;;;;5135648;28;20092;-72
2023/06/20 04:20:39;;;;;;;13.05;9.27;;;22.80;68.20;;;;;;5100408;28;20024;-72
2023/06/20 04:23:04;;;;;;;13.50;8.77;;;22.80;67.90;;;;;;5135596;28;20028;-72
2023/06/20 04:25:30;;;;;;;14.77;9.63;;;22.90;67.90;;;;;;5117601;28;20032;-72
2023/06/20 04:27:56;;;;;;;13.05;8.93;;;22.90;68.10;;;;;;5135503;28;20038;-72
2023/06/20 04:30:24;;;;;;;12.15;9.18;;;22.90;68.40;;;;;;5100606;28;20049;-72
2023/06/20 04:32:53;;;;;;;15.02;9.90;;;22.90;68.50;;;;;;5116418;28;20488;-72
2023/06/20 04:35:22;;;;;;;15.82;9.68;;;22.90;68.30;;;;;;5117232;28;20027;-72
2023/06/20 04:37:52;;;;;;;17.98;9.95;;;22.90;68.50;;;;;;5135310;28;20024;-72
2023/06/20 04:40:18;;;;;;;16.52;9.80;;;22.90;68.80;;;;;;5135227;28;20027;-73
2023/06/20 04:42:47;;;;;;;14.20;9.63;;;22.90;68.70;;;;;;5117240;28;20016;-72
2023/06/20 04:45:13;;;;;;;16.02;10.45;;;22.80;68.60;;;;;;5135111;28;20023;-72
2023/06/20 04:47:41;;;;;;;16.60;10.63;;;22.80;69.10;;;;;;5134846;28;20092;-72
2023/06/20 04:50:09;;;;;;;13.57;10.43;;;22.80;69.40;;;;;;5117587;28;20428;-72
2023/06/20 04:52:35;;;;;;;14.95;10.48;;;22.80;69.80;;;;;;5100413;28;20091;-71
2023/06/20 04:55:03;;;;;;;15.63;11.18;;;22.80;69.80;;;;;;5116928;28;20050;-72
2023/06/20 04:57:33;;;;;;;19.25;12.20;;;22.80;69.30;;;;;;5116863;28;20028;-72
2023/06/20 04:59:59;;;;;;;16.65;11.25;;;22.70;69.00;;;;;;5134886;28;20059;-72
2023/06/20 05:02:25;;;;;;;16.92;11.90;;;22.70;69.20;;;;;;5134728;28;20031;-72
2023/06/20 05:04:51;;;;;;;18.10;12.07;;;22.80;69.90;;;;;;5116734;28;20019;-72
2023/06/20 05:07:17;;;;;;;17.95;11.52;;;22.90;70.40;;;;;;5134737;28;20053;-72
2023/06/20 05:09:43;;;;;;;16.40;12.15;;;22.80;70.30;;;;;;5099775;28;20020;-72
2023/06/20 05:12:09;;;;;;;18.90;13.57;;;22.90;70.30;;;;;;5116729;28;20023;-72
2023/06/20 05:14:35;;;;;;;20.10;13.95;;;22.80;70.00;;;;;;5134596;28;20030;-72
2023/06/20 05:17:01;;;;;;;19.73;13.77;;;22.80;70.20;;;;;;5134539;28;20111;-72
2023/06/20 05:19:26;;;;;;;19.30;12.88;;;22.80;70.10;;;;;;5116694;28;20036;-72
2023/06/20 05:21:52;;;;;;;19.42;13.55;;;22.80;70.40;;;;;;5134425;28;20062;-72
2023/06/20 05:24:18;;;;;;;19.65;13.75;;;22.70;70.40;;;;;;5116550;28;20035;-72
2023/06/20 05:26:43;;;;;;;20.88;14.35;;;22.70;70.20;;;;;;5116537;28;20020;-72
2023/06/20 05:29:09;;;;;;;21.35;13.45;;;22.70;70.60;;;;;;5134349;28;20097;-72
2023/06/20 05:31:40;;;;;;;25.35;14.57;;;22.70;70.90;;;;;;5134370;28;20035;-72
2023/06/20 05:34:06;;;;;;;20.93;14.57;;;22.70;70.90;;;;;;5134291;28;20027;-72
2023/06/20 05:36:31;;;;;;;20.52;13.27;;;22.70;70.80;;;;;;5116265;28;20054;-72
2023/06/20 05:38:58;;;;;;;22.98;14.13;;;22.70;71.20;;;;;;5116343;28;20028;-72
2023/06/20 05:41:24;;;;;;;21.67;14.68;;;22.70;71.70;;;;;;5134109;28;20088;-72
2023/06/20 05:43:50;;;;;;;22.48;14.73;;;22.60;72.20;;;;;;5116062;28;20467;-72
2023/06/20 05:46:15;;;;;;;24.73;14.70;;;22.70;72.30;;;;;;5134119;28;20053;-72
2023/06/20 05:48:41;;;;;;;23.52;13.63;;;22.70;72.10;;;;;;5099041;28;20051;-73
2023/06/20 05:51:14;;;;;;;18.65;13.38;;;22.80;72.00;;;;;;5134048;28;20028;-73
2023/06/20 05:53:41;;;;;;;22.48;14.27;;;22.80;72.00;;;;;;5099164;28;20035;-73
2023/06/20 05:56:10;;;;;;;19.17;13.98;;;22.90;72.30;;;;;;5099449;28;20095;-72
2023/06/20 05:58:36;;;;;;;20.15;13.25;;;22.90;72.30;;;;;;5134089;28;20094;-73
2023/06/20 06:01:05;;;;;;;18.40;13.57;;;23.00;71.80;;;;;;5116028;28;20028;-73
2023/06/20 06:03:34;;;;;;;19.63;12.68;;;23.00;71.70;;;;;;5133949;28;20084;-73
2023/06/20 06:06:00;;;;;;;20.60;13.60;;;23.10;71.50;;;;;;5133898;28;20031;-73
2023/06/20 06:08:26;;;;;;;20.50;13.50;;;23.10;71.60;;;;;;5116187;28;20479;-73
2023/06/20 06:10:53;;;;;;;21.00;14.15;;;23.10;71.40;;;;;;5115902;28;20073;-73
2023/06/20 06:13:18;;;;;;;21.70;13.82;;;23.20;71.70;;;;;;5116074;28;20024;-72
2023/06/20 06:15:44;;;;;;;20.52;13.80;;;23.20;71.80;;;;;;5115839;28;20081;-73
2023/06/20 06:18:10;;;;;;;18.45;13.45;;;23.20;71.80;;;;;;5115866;28;20043;-73
2023/06/20 06:20:35;;;;;;;20.60;13.45;;;23.30;71.70;;;;;;5115761;28;20036;-73
2023/06/20 06:23:01;;;;;;;20.75;13.43;;;23.30;71.50;;;;;;5133758;28;20016;-73
2023/06/20 06:25:27;;;;;;;19.13;12.32;;;23.40;71.30;;;;;;5115770;28;20019;-73
2023/06/20 06:27:52;;;;;;;20.52;12.93;;;23.40;71.20;;;;;;5115709;28;20023;-73
2023/06/20 06:30:18;;;;;;;20.27;13.55;;;23.40;71.20;;;;;;5133705;28;20043;-73
2023/06/20 06:32:47;;;;;;;20.33;13.57;;;23.50;71.50;;;;;;5133667;28;20020;-73
2023/06/20 06:35:16;;;;;;;20.85;13.63;;;23.60;72.10;;;;;;5133534;28;20007;-73
2023/06/20 06:37:42;;;;;;;23.55;13.35;;;23.60;72.40;;;;;;5133791;28;20087;-73
2023/06/20 06:40:11;;;;;;;19.30;12.45;;;23.60;71.80;;;;;;5115631;28;20024;-72
2023/06/20 06:42:37;;;;;;;17.83;13.23;;;23.60;71.80;;;;;;5133483;28;20077;-73
2023/06/20 06:45:04;;;;;;;19.92;12.48;;;23.60;72.20;;;;;;5133545;28;20035;-73
2023/06/20 06:47:30;;;;;;;18.48;12.48;;;23.70;73.20;;;;;;5115731;28;20027;-73
2023/06/20 06:49:55;;;;;;;17.35;12.50;;;23.70;72.90;;;;;;5115478;28;20048;-72
2023/06/20 06:52:21;;;;;;;16.70;11.18;;;23.70;72.60;;;;;;5098688;28;20039;-73
2023/06/20 06:54:47;;;;;;;20.50;11.60;;;23.80;72.50;;;;;;5115674;28;20032;-73
2023/06/20 06:57:13;;;;;;;16.27;11.57;;;23.80;72.60;;;;;;5119241;28;20066;-73
2023/06/20 06:59:38;;;;;;;15.52;11.20;;;23.80;72.80;;;;;;5102187;28;20038;-73
2023/06/20 07:02:05;;;;;;;17.15;11.50;;;23.90;73.20;;;;;;5137306;28;20114;-73
2023/06/20 07:04:34;;;;;;;18.23;12.25;;;24.00;73.50;;;;;;5119441;28;20016;-73
2023/06/20 07:06:59;;;;;;;18.27;11.40;;;24.00;73.70;;;;;;5137141;28;20032;-72
2023/06/20 07:09:25;;;;;;;15.43;11.13;;;24.00;73.10;;;;;;5137090;28;20030;-72
2023/06/20 07:11:50;;;;;;;18.55;11.73;;;23.90;73.60;;;;;;5102040;28;20103;-71
2023/06/20 07:14:16;;;;;;;16.88;12.05;;;23.90;74.00;;;;;;5136983;28;20019;-72
2023/06/20 07:16:42;;;;;;;16.27;11.73;;;24.00;74.40;;;;;;5119016;28;20067;-75
2023/06/20 07:19:07;;;;;;;18.83;11.05;;;24.00;74.00;;;;;;5118821;28;20024;-74
2023/06/20 07:21:33;;;;;;;20.13;11.75;;;23.90;73.50;;;;;;5101748;28;20168;-75
2023/06/20 07:23:58;;;;;;;18.02;11.82;;;23.90;73.30;;;;;;5118817;28;20020;-75
2023/06/20 07:26:24;;;;;;;16.00;10.95;;;24.00;73.90;;;;;;5101832;28;20386;-75
2023/06/20 07:28:50;;;;;;;20.80;13.10;;;24.10;73.60;;;;;;5118737;28;20104;-74
2023/06/20 07:31:19;;;;;;;19.77;12.80;;;24.10;73.90;;;;;;5118735;28;20039;-75
2023/06/20 07:33:45;;;;;;;19.38;13.43;;;24.20;74.20;;;;;;5136527;28;20030;-74
2023/06/20 07:36:11;;;;;;;15.85;10.82;;;24.20;74.10;;;;;;5136608;28;20023;-74
2023/06/20 07:38:37;;;;;;;15.30;11.25;;;24.30;73.80;;;;;;5136447;28;20035;-75
2023/06/20 07:41:03;;;;;;;15.60;10.07;;;24.40;74.70;;;;;;5118334;28;20027;-75
2023/06/20 07:43:29;;;;;;;15.60;10.02;;;24.40;74.70;;;;;;5136514;28;20028;-75
2023/06/20 07:45:54;;;;;;;12.40;8.88;;;24.50;73.50;;;;;;5136367;28;20042;-75
2023/06/20 07:48:24;;;;;;;10.05;7.47;;;24.50;73.70;;;;;;5117987;28;20482;-75
2023/06/20 07:50:49;;;;;;;13.80;9.43;;;24.60;74.10;;;;;;5118349;28;20027;-75
2023/06/20 07:53:15;;;;;;;10.00;6.65;;;24.70;75.00;;;;;;5084439;28;20065;-75
2023/06/20 07:55:41;;;;;;;8.45;6.03;;;24.90;75.10;;;;;;5118287;28;20063;-75
2023/06/20 07:58:06;;;;;;;8.93;6.45;;;25.00;73.90;;;;;;5117940;28;20091;-75
2023/06/20 08:00:32;;;;;;;13.77;9.32;;;25.00;73.50;;;;;;5118066;28;20039;-75
2023/06/20 08:02:58;;;;;;;7.90;6.13;;;24.90;73.30;;;;;;5135973;28;20030;-75
2023/06/20 08:05:23;;;;;;;7.57;4.93;;;25.00;73.50;;;;;;5118057;28;20016;-75
2023/06/20 08:07:49;;;;;;;6.72;4.20;;;25.10;72.40;;;;;;5116899;28;20379;-75
2023/06/20 08:10:15;;;;;;;5.93;4.50;;;25.10;72.10;;;;;;5117854;28;20055;-75
2023/06/20 08:12:40;;;;;;;7.03;4.22;;;25.20;72.30;;;;;;5118039;28;20020;-75
2023/06/20 08:15:06;;;;;;;7.45;4.28;;;25.30;72.70;;;;;;5117651;28;20031;-75
2023/06/20 08:17:32;;;;;;;5.03;4.20;;;25.40;71.90;;;;;;5100814;28;20027;-75
2023/06/20 08:19:59;;;;;;;5.88;4.40;;;25.50;71.70;;;;;;5135657;28;20024;-75
2023/06/20 08:22:26;;;;;;;5.57;4.75;;;25.60;70.80;;;;;;5100615;28;20034;-75
2023/06/20 08:24:51;;;;;;;6.53;4.90;;;25.60;70.80;;;;;;5135690;28;20030;-75
2023/06/20 08:27:17;;;;;;;7.22;4.97;;;25.60;70.60;;;;;;5117467;28;20111;-75
2023/06/20 08:29:43;;;;;;;7.30;4.72;;;25.50;70.40;;;;;;5117768;28;20024;-75
2023/06/20 08:32:08;;;;;;;6.72;5.22;;;25.50;71.70;;;;;;5117350;28;20035;-75
2023/06/20 08:34:34;;;;;;;5.80;4.55;;;25.50;70.30;;;;;;5100384;28;20035;-75
2023/06/20 08:36:59;;;;;;;9.80;5.05;;;25.50;70.10;;;;;;5135290;28;20031;-75
2023/06/20 08:39:25;;;;;;;9.48;5.97;;;25.50;71.40;;;;;;5135253;28;20032;-75
2023/06/20 08:41:51;;;;;;;6.18;5.10;;;25.40;70.90;;;;;;5117308;28;20039;-75
2023/06/20 08:44:17;;;;;;;8.75;5.57;;;25.40;71.10;;;;;;5117268;28;20008;-75
2023/06/20 08:46:45;;;;;;;7.30;5.30;;;25.50;71.70;;;;;;5117316;28;20053;-76
2023/06/20 08:49:14;;;;;;;5.18;4.28;;;25.50;72.40;;;;;;5100190;28;20055;-76
2023/06/20 08:51:43;;;;;;;4.90;4.10;;;25.60;70.70;;;;;;5117014;28;20040;-76
2023/06/20 08:54:13;;;;;;;5.25;3.58;;;25.60;71.80;;;;;;5134996;28;20052;-75
2023/06/20 08:56:39;;;;;;;5.25;3.67;;;25.70;70.40;;;;;;5134979;28;20024;-75
2023/06/20 08:59:05;;;;;;;4.95;4.00;;;25.70;69.20;;;;;;5116873;28;20034;-76
2023/06/20 09:01:35;;;;;;;5.00;3.85;;;25.80;69.80;;;;;;5134762;28;20028;-75
2023/06/20 09:04:01;;;;;;;7.43;4.15;;;25.80;70.00;;;;;;5117534;28;20020;-75
2023/06/20 09:06:37;;;;;;;6.15;4.40;;;25.80;69.50;;;;;;5116915;28;20076;-75
2023/06/20 09:09:21;;;;;;;5.82;3.95;;;25.80;69.30;;;;;;5116783;28;20032;-76
2023/06/20 09:11:57;;;;;;;8.02;4.68;;;26.10;70.00;;;;;;5116524;28;20027;-76
2023/06/20 09:14:29;;;;;;;5.75;4.10;;;26.20;69.00;;;;;;5134827;28;20039;-75
2023/06/20 09:16:55;;;;;;;5.70;4.32;;;26.20;68.20;;;;;;5134552;28;20024;-75
2023/06/20 09:19:22;;;;;;;5.35;3.92;;;26.20;68.50;;;;;;5134241;28;20094;-75
2023/06/20 09:21:48;;;;;;;6.47;4.07;;;26.20;68.00;;;;;;5099622;28;20049;-75
2023/06/20 09:24:19;;;;;;;6.78;4.82;;;26.20;69.70;;;;;;5116433;28;20031;-75
2023/06/20 09:26:49;;;;;;;5.55;4.10;;;26.40;69.70;;;;;;5116503;28;20016;-75
2023/06/20 09:29:16;;;;;;;5.43;3.83;;;26.40;69.70;;;;;;5116167;28;20043;-76
2023/06/20 09:31:49;;;;;;;4.47;3.75;;;26.40;67.40;;;;;;5116280;28;20057;-76
2023/06/20 09:34:15;;;;;;;;;;;26.40;70.20;;;;;;5134645;28;20035;-75
2023/06/20 09:36:41;;;;;;;5.13;4.28;;;26.40;68.40;;;;;;5134109;28;19904;-75
2023/06/20 09:39:17;;;;;;;5.85;4.05;;;26.30;67.10;;;;;;5134264;28;20053;-75
2023/06/20 09:41:46;;;;;;;5.95;4.18;;;26.30;68.10;;;;;;5134138;28;20043;-74
2023/06/20 09:44:13;;;;;;;5.30;4.03;;;26.30;68.40;;;;;;5116098;28;20024;-75
2023/06/20 09:46:39;;;;;;;4.93;4.05;;;26.30;68.50;;;;;;5115999;28;20081;-74
2023/06/20 09:49:05;;;;;;;5.72;4.30;;;26.40;67.80;;;;;;5115877;28;20039;-74
2023/06/20 09:51:37;;;;;;;5.35;4.22;;;26.40;66.90;;;;;;5134042;28;20030;-75
2023/06/20 09:54:05;;;;;;;5.47;4.00;;;26.30;66.80;;;;;;5134098;28;20034;-74
2023/06/20 09:56:57;;;;;;;5.03;3.97;;;26.30;68.50;;;;;;5133954;28;20057;-74
2023/06/20 09:59:26;;;;;;;6.05;4.18;;;26.30;68.00;;;;;;5133982;28;20020;-74
2023/06/20 10:01:54;;;;;;;5.75;4.15;;;26.40;68.60;;;;;;5115910;28;20028;-74
2023/06/20 10:04:20;;;;;;;6.05;3.85;;;26.60;71.00;;;;;;5133981;28;20016;-75
2023/06/20 10:06:47;;;;;;;5.28;3.35;;;26.80;68.30;;;;;;5133782;28;20093;-75
2023/06/20 10:09:14;;;;;;;4.43;3.47;;;26.90;68.00;;;;;;5133913;28;20034;-75
2023/06/20 10:11:41;;;;;;;5.53;4.32;;;26.90;66.80;;;;;;5133827;28;20046;-75
2023/06/20 10:14:09;;;;;;;4.40;3.40;;;26.90;65.30;;;;;;5133834;28;20027;-74
2023/06/20 10:16:34;;;;;;;4.32;3.28;;;26.80;66.50;;;;;;5133736;28;20044;-75
2023/06/20 10:19:19;;;;;;;5.25;3.45;;;26.80;66.40;;;;;;5133656;28;20031;-75
2023/06/20 10:22:00;;;;;;;5.88;3.40;;;26.90;64.40;;;;;;5099359;28;20089;-75
2023/06/20 10:24:27;;;;;;;3.70;3.00;;;27.00;65.40;;;;;;5133781;28;20019;-76
2023/06/20 10:26:54;;;;;;;4.35;3.13;;;27.00;65.20;;;;;;5133690;28;20031;-75
2023/06/20 10:29:21;;;;;;;2.95;2.63;;;27.10;65.70;;;;;;5133655;28;20044;-75
2023/06/20 10:32:02;;;;;;;4.35;3.03;;;27.20;64.60;;;;;;5137102;28;20121;-76
2023/06/20 10:34:29;;;;;;;3.97;3.13;;;27.30;65.80;;;;;;5137725;28;20024;-75
2023/06/20 10:37:27;;;;;;;3.83;2.90;;;27.30;65.40;;;;;;5137602;28;20028;-75
2023/06/20 10:39:57;;;;;;;3.97;2.80;;;27.40;65.70;;;;;;5118220;28;20041;-74
2023/06/20 10:42:44;;;;;;;4.03;3.13;;;27.40;64.10;;;;;;5137459;28;20023;-73
2023/06/20 10:45:29;;;;;;;3.60;3.10;;;27.50;66.50;;;;;;5137609;28;20024;-74
2023/06/20 10:47:56;;;;;;;12.80;3.92;;;27.60;64.50;;;;;;5102433;28;20019;-75
2023/06/20 10:50:23;;;;;;;4.32;3.38;;;27.60;64.90;;;;;;5119625;28;20048;-75
2023/06/20 10:52:49;;;;;;;6.80;3.35;;;27.60;63.70;;;;;;5137382;28;20034;-74
2023/06/20 10:55:24;;;;;;;4.40;3.53;;;27.70;64.00;;;;;;5119223;28;20011;-74
2023/06/20 10:57:51;;;;;;;6.38;3.20;;;27.70;64.80;;;;;;5137381;28;20022;-74
2023/06/20 11:00:18;;;;;;;4.15;3.10;;;27.70;63.80;;;;;;5119303;28;20026;-74
2023/06/20 11:02:48;;;;;;;3.30;2.83;;;27.70;63.40;;;;;;5137102;28;20023;-73
2023/06/20 11:05:14;;;;;;;4.05;2.70;;;27.80;62.50;;;;;;5137187;28;20024;-74
2023/06/20 11:07:59;;;;;;;4.40;2.97;;;27.90;64.20;;;;;;5137107;28;20048;-74
2023/06/20 11:10:30;;;;;;;4.40;3.00;;;28.10;63.50;;;;;;5137091;28;20016;-75
2023/06/20 11:12:58;;;;;;;5.38;3.15;;;28.20;63.90;;;;;;5137071;28;20011;-75
2023/06/20 11:15:32;;;;;;;4.38;3.10;;;28.40;62.60;;;;;;5137000;28;20016;-74
2023/06/20 11:18:01;;;;;;;3.28;2.83;;;28.50;61.60;;;;;;5136927;28;20022;-75
2023/06/20 11:20:27;;;;;;;4.82;3.00;;;28.50;61.40;;;;;;5136780;28;20020;-74
2023/06/20 11:22:55;;;;;;;3.67;3.05;;;28.60;61.10;;;;;;5118534;28;20047;-74
2023/06/20 11:25:26;;;;;;;4.45;3.30;;;28.60;61.60;;;;;;5118753;28;20016;-74
2023/06/20 11:27:51;;;;;;;3.72;2.95;;;28.70;60.40;;;;;;5136734;28;20020;-74
2023/06/20 11:30:27;;;;;;;4.35;2.88;;;28.80;60.50;;;;;;5136733;28;20019;-74
2023/06/20 11:33:00;;;;;;;4.30;3.15;;;28.90;61.70;;;;;;5118615;28;20035;-74
2023/06/20 11:35:44;;;;;;;3.55;2.95;;;28.90;61.80;;;;;;5136534;28;20046;-74
2023/06/20 11:38:13;;;;;;;4.18;2.85;;;28.90;60.20;;;;;;5118311;28;20034;-75
2023/06/20 11:40:40;;;;;;;3.10;2.80;;;29.00;60.80;;;;;;5118343;28;20023;-74
2023/06/20 11:43:06;;;;;;;3.25;2.90;;;28.90;60.20;;;;;;5136306;28;20019;-74
2023/06/20 11:45:33;;;;;;;3.85;2.90;;;28.90;60.60;;;;;;5136358;28;20030;-74
2023/06/20 11:48:13;;;;;;;3.53;2.92;;;28.90;59.20;;;;;;5136329;28;20020;-74
2023/06/20 11:50:44;;;;;;;3.67;2.60;;;29.00;59.70;;;;;;5136377;28;20103;-75
2023/06/20 11:53:37;;;;;;;4.90;3.20;;;29.10;58.60;;;;;;5136223;28;20019;-74
2023/06/20 11:56:10;;;;;;;5.95;3.40;;;29.20;59.90;;;;;;5136248;28;20093;-74
2023/06/20 11:58:41;;;;;;;4.07;3.20;;;29.30;58.40;;;;;;5136146;28;20040;-74
2023/06/20 12:01:18;;;;;;;4.40;3.10;;;29.30;57.20;;;;;;5136103;28;20083;-74
2023/06/20 12:03:45;;;;;;;3.38;2.92;;;29.30;58.80;;;;;;5118149;28;20028;-74
2023/06/20 12:06:43;;;;;;;3.70;3.00;;;29.30;58.30;;;;;;5135980;28;20099;-74
2023/06/20 12:09:16;;;;;;;4.20;2.67;;;29.30;57.70;;;;;;5080065;28;20044;-74
2023/06/20 12:11:55;;;;;;;4.25;2.45;;;29.40;57.40;;;;;;5135942;28;20023;-74
2023/06/20 12:14:24;;;;;;;4.38;2.50;;;29.40;55.50;;;;;;5135815;28;20023;-75
2023/06/20 12:16:50;;;;;;;3.80;2.50;;;29.50;56.80;;;;;;5117580;28;20039;-74
2023/06/20 12:19:17;;;;;;;3.58;2.92;;;29.60;56.30;;;;;;5135657;28;20024;-74
2023/06/20 12:21:43;;;;;;;5.65;2.72;;;29.70;54.60;;;;;;5135630;28;20020;-75
2023/06/20 12:24:10;;;;;;;3.78;2.75;;;29.70;55.50;;;;;;5117741;28;20020;-75
2023/06/20 12:26:36;;;;;;;3.65;2.92;;;29.70;56.20;;;;;;5135618;28;20028;-76
2023/06/20 12:29:02;;;;;;;3.10;2.67;;;29.80;57.30;;;;;;5117617;28;20028;-75
2023/06/20 12:31:28;;;;;;;4.68;3.08;;;29.80;55.70;;;;;;5117381;28;20091;-75
2023/06/20 12:33:54;;;;;;;3.85;2.80;;;29.80;56.70;;;;;;5135408;28;20451;-74
2023/06/20 12:36:20;;;;;;;3.20;2.40;;;29.90;56.90;;;;;;5100536;28;20052;-75
2023/06/20 12:38:46;;;;;;;3.63;2.58;;;29.90;54.20;;;;;;5135300;28;20034;-75
2023/06/20 12:41:11;;;;;;;4.10;2.80;;;29.90;54.40;;;;;;5135135;28;20111;-75
2023/06/20 12:43:37;;;;;;;3.75;2.85;;;30.10;53.80;;;;;;5117316;28;20020;-75
2023/06/20 12:46:03;;;;;;;3.65;2.85;;;30.20;55.20;;;;;;5100117;28;20058;-75
2023/06/20 12:48:30;;;;;;;3.10;2.50;;;30.20;54.80;;;;;;5100176;28;20056;-76